Time;durP1;ratioP1;P1;durP2;ratioP2;P2;SDS_P1;SDS_P2;PMS_P1;PMS_P2;Temp;Humidity;BMP_temperature;BMP_pressure;BME280_temperature;BME280_humidity;BME280_pressure;Samples;Min_cycle;Max_cycle;Signal;HPM_P1;HPM_P2
2021/08/04 00:00:27;;;;;;;2.30;2.20;;;18.20;99.90;;;;;;9802233;30;20679;-82
2021/08/04 00:05:29;;;;;;;2.50;2.40;;;18.10;99.90;;;;;;9788016;30;20209;-82
2021/08/04 00:10:33;;;;;;;2.60;2.40;;;18.00;99.90;;;;;;9786285;30;20208;-82
2021/08/04 00:15:35;;;;;;;3.17;2.60;;;17.80;99.90;;;;;;9787839;30;20323;-82
2021/08/04 00:20:37;;;;;;;2.97;2.77;;;17.80;99.90;;;;;;9786265;30;20221;-82
2021/08/04 00:25:41;;;;;;;2.50;2.40;;;17.70;99.90;;;;;;9805367;30;20808;-82
2021/08/04 00:30:43;;;;;;;3.00;2.80;;;17.70;99.90;;;;;;9786113;30;20232;-82
2021/08/04 00:35:45;;;;;;;2.67;2.53;;;17.70;99.90;;;;;;9786564;30;20236;-82
2021/08/04 00:40:49;;;;;;;3.60;2.53;;;17.70;99.90;;;;;;9786955;30;20275;-83
2021/08/04 00:45:51;;;;;;;3.47;2.83;;;17.70;99.90;;;;;;9777559;30;20576;-82
2021/08/04 00:50:54;;;;;;;2.50;2.40;;;17.70;99.90;;;;;;9785332;30;20212;-82
2021/08/04 00:55:59;;;;;;;3.20;3.00;;;17.70;99.90;;;;;;9790175;24;20296;-80
2021/08/04 01:01:05;;;;;;;3.00;2.77;;;17.70;99.90;;;;;;9781533;30;20263;-80
2021/08/04 01:06:12;;;;;;;3.23;2.93;;;17.80;99.90;;;;;;9780807;30;20709;-81
2021/08/04 01:11:18;;;;;;;2.80;2.60;;;17.80;99.90;;;;;;9734551;30;20682;-81
2021/08/04 01:16:24;;;;;;;3.03;2.80;;;17.80;99.90;;;;;;9765805;30;20710;-81
2021/08/04 01:21:33;;;;;;;3.90;2.47;;;17.80;99.90;;;;;;9746354;30;20328;-81
2021/08/04 01:26:39;;;;;;;2.47;2.37;;;17.80;99.90;;;;;;9761160;30;20237;-80
2021/08/04 01:31:44;;;;;;;2.80;2.60;;;17.80;99.90;;;;;;9746324;30;20308;-80
2021/08/04 01:36:47;;;;;;;2.93;2.73;;;17.70;99.90;;;;;;9746879;30;20538;-80
2021/08/04 01:41:52;;;;;;;2.50;2.40;;;17.80;99.90;;;;;;9761845;30;20242;-80
2021/08/04 01:46:55;;;;;;;2.57;2.47;;;17.80;99.90;;;;;;9746608;30;20229;-80
2021/08/04 01:51:58;;;;;;;3.03;2.70;;;17.80;99.90;;;;;;9747283;30;20252;-80
2021/08/04 01:57:01;;;;;;;2.77;2.57;;;17.80;99.90;;;;;;9747257;30;20241;-81
2021/08/04 02:02:18;;;;;;;2.50;2.40;;;17.80;99.90;;;;;;9747912;30;20229;-81
2021/08/04 02:07:36;;;;;;;2.67;2.47;;;17.80;99.90;;;;;;9761309;30;20229;-80
2021/08/04 02:12:46;;;;;;;3.00;2.63;;;17.80;99.90;;;;;;9762205;30;20209;-81
2021/08/04 02:17:55;;;;;;;2.77;2.67;;;17.80;99.90;;;;;;9732086;30;20352;-80
2021/08/04 02:23:01;;;;;;;2.90;2.70;;;17.80;99.90;;;;;;9765838;30;20247;-80
2021/08/04 02:28:10;;;;;;;2.57;2.47;;;17.80;99.90;;;;;;9761351;30;20260;-80
2021/08/04 02:33:13;;;;;;;3.17;2.87;;;17.80;99.90;;;;;;9761152;30;20232;-80
2021/08/04 02:38:16;;;;;;;2.80;2.60;;;17.90;99.90;;;;;;9747334;30;20233;-80
2021/08/04 02:43:21;;;;;;;3.00;2.80;;;17.90;99.90;;;;;;9747480;30;20789;-80
2021/08/04 02:48:24;;;;;;;2.27;2.13;;;17.90;99.90;;;;;;9763199;30;20240;-80
2021/08/04 02:53:27;;;;;;;3.33;3.00;;;17.90;99.90;;;;;;9765743;30;20364;-80
2021/08/04 02:58:36;;;;;;;3.00;2.80;;;17.80;99.90;;;;;;9762074;30;20232;-81
2021/08/04 03:03:38;;;;;;;3.23;3.03;;;17.90;99.90;;;;;;9761938;30;20746;-80
2021/08/04 03:08:40;;;;;;;3.40;3.20;;;17.80;99.90;;;;;;9746357;30;20350;-80
2021/08/04 03:13:43;;;;;;;3.20;3.00;;;17.80;99.90;;;;;;9760748;30;20646;-79
2021/08/04 03:18:46;;;;;;;3.00;2.90;;;17.70;99.90;;;;;;9761915;30;20263;-80
2021/08/04 03:23:48;;;;;;;3.10;2.80;;;17.70;99.90;;;;;;9749759;30;20327;-79
2021/08/04 03:28:51;;;;;;;2.63;2.47;;;17.70;99.90;;;;;;9779681;30;20225;-80
2021/08/04 03:33:53;;;;;;;3.00;2.80;;;17.60;99.90;;;;;;9743335;30;20241;-80
2021/08/04 03:38:56;;;;;;;2.53;2.43;;;17.60;99.90;;;;;;9735829;30;20316;-80
2021/08/04 03:43:59;;;;;;;3.23;3.03;;;17.50;99.90;;;;;;9766774;30;20267;-79
2021/08/04 03:49:01;;;;;;;3.00;2.80;;;17.40;99.90;;;;;;9748900;30;20237;-79
2021/08/04 03:54:03;;;;;;;3.17;2.93;;;17.30;99.90;;;;;;9764935;30;20221;-79
2021/08/04 03:59:07;;;;;;;2.80;2.60;;;17.20;99.90;;;;;;9763145;30;20247;-79
2021/08/04 04:04:09;;;;;;;3.30;3.00;;;17.20;99.90;;;;;;9763957;30;20225;-80
2021/08/04 04:09:11;;;;;;;3.30;3.10;;;17.10;99.90;;;;;;9734949;30;20237;-80
2021/08/04 04:14:14;;;;;;;3.63;3.33;;;17.10;99.90;;;;;;9758788;30;20210;-80
2021/08/04 04:19:16;;;;;;;3.43;3.13;;;17.00;99.90;;;;;;9746244;30;20268;-81
2021/08/04 04:24:18;;;;;;;3.40;3.10;;;16.90;99.90;;;;;;9731167;30;20337;-80
2021/08/04 04:29:22;;;;;;;3.23;3.03;;;16.90;99.90;;;;;;9750743;30;20226;-80
2021/08/04 04:34:24;;;;;;;2.90;2.70;;;16.90;99.90;;;;;;9771741;30;20261;-79
2021/08/04 04:39:26;;;;;;;3.10;2.97;;;16.90;99.90;;;;;;9747621;30;20252;-78
2021/08/04 04:44:30;;;;;;;3.37;3.13;;;16.90;99.90;;;;;;9746124;30;20253;-80
2021/08/04 04:49:32;;;;;;;2.73;2.53;;;17.00;99.90;;;;;;9761416;30;20928;-80
2021/08/04 04:54:34;;;;;;;3.40;3.10;;;17.10;99.90;;;;;;9763399;30;20213;-80
2021/08/04 04:59:37;;;;;;;3.30;2.70;;;17.10;99.90;;;;;;9747693;30;20299;-80
2021/08/04 05:04:40;;;;;;;3.10;2.90;;;17.10;99.90;;;;;;10633453;25;20256;-80
2021/08/04 05:10:02;;;;;;;3.80;3.47;;;17.20;99.90;;;;;;9774783;30;20216;-79
2021/08/04 05:15:25;;;;;;;3.97;3.77;;;17.30;99.90;;;;;;9794370;30;20243;-79
2021/08/04 05:20:47;;;;;;;3.63;3.33;;;17.40;99.90;;;;;;9798196;30;20231;-80
2021/08/04 05:26:09;;;;;;;8.10;3.73;;;17.60;99.90;;;;;;9751757;30;20596;-80
2021/08/04 05:31:32;;;;;;;4.03;3.83;;;17.70;99.90;;;;;;9746384;30;20210;-79
2021/08/04 05:36:54;;;;;;;5.10;3.67;;;17.80;99.90;;;;;;9762320;30;20241;-80
2021/08/04 05:42:16;;;;;;;3.27;3.03;;;17.90;99.90;;;;;;9761916;30;20312;-80
2021/08/04 05:47:39;;;;;;;3.53;3.23;;;18.00;99.90;;;;;;9762681;30;20217;-80
2021/08/04 05:53:02;;;;;;;3.20;3.00;;;18.10;99.90;;;;;;9759508;30;20232;-80
2021/08/04 05:58:24;;;;;;;3.53;3.23;;;18.20;99.90;;;;;;9747432;30;20209;-80
2021/08/04 06:03:47;;;;;;;3.60;3.30;;;18.40;99.90;;;;;;9758613;30;20251;-79
2021/08/04 06:09:09;;;;;;;3.87;3.60;;;18.60;99.90;;;;;;9759258;30;20224;-80
2021/08/04 06:14:31;;;;;;;4.00;3.53;;;18.70;99.90;;;;;;9760192;30;20237;-79
2021/08/04 06:19:54;;;;;;;4.30;4.00;;;18.80;99.90;;;;;;9746197;30;20209;-79
2021/08/04 06:25:16;;;;;;;3.67;3.33;;;18.70;99.90;;;;;;9759880;30;20241;-80
2021/08/04 06:30:38;;;;;;;3.50;3.30;;;18.80;99.90;;;;;;9747591;30;20216;-80
2021/08/04 06:36:01;;;;;;;3.87;3.57;;;18.90;99.90;;;;;;9760274;30;20241;-81
2021/08/04 06:41:23;;;;;;;3.50;3.23;;;19.10;99.90;;;;;;9761022;30;20205;-81
2021/08/04 06:46:45;;;;;;;3.37;3.17;;;19.40;99.90;;;;;;9761886;30;20222;-80
2021/08/04 06:52:09;;;;;;;3.10;2.90;;;19.60;99.90;;;;;;9749077;30;20197;-80
2021/08/04 06:57:31;;;;;;;3.03;2.70;;;19.70;99.90;;;;;;9746048;30;20209;-81
2021/08/04 07:02:53;;;;;;;4.07;3.77;;;19.80;99.90;;;;;;9744502;30;20257;-81
2021/08/04 07:08:18;;;;;;;4.10;3.10;;;19.90;99.90;;;;;;9758473;30;20225;-80
2021/08/04 07:13:40;;;;;;;3.83;3.50;;;20.10;99.90;;;;;;9765245;30;20249;-81
2021/08/04 07:19:02;;;;;;;4.00;3.13;;;20.30;99.90;;;;;;9767826;30;20291;-80
2021/08/04 07:24:26;;;;;;;3.43;3.13;;;20.50;99.90;;;;;;9768877;30;20237;-80
2021/08/04 07:29:48;;;;;;;2.93;2.70;;;20.70;99.90;;;;;;9769920;30;20224;-80
2021/08/04 07:35:10;;;;;;;2.97;2.77;;;20.60;99.90;;;;;;9767152;30;20225;-81
2021/08/04 07:40:33;;;;;;;3.40;3.10;;;20.50;99.90;;;;;;9767610;30;20584;-80
2021/08/04 07:45:55;;;;;;;4.63;3.40;;;20.60;99.90;;;;;;9766970;30;20237;-80
2021/08/04 07:51:18;;;;;;;3.00;2.80;;;20.70;99.90;;;;;;9767560;30;20218;-81
2021/08/04 07:56:41;;;;;;;3.60;3.30;;;21.00;99.90;;;;;;9765953;30;20296;-81
2021/08/04 08:02:04;;;;;;;3.63;3.43;;;21.30;99.90;;;;;;9765405;30;20228;-80
2021/08/04 08:07:26;;;;;;;3.30;3.10;;;21.40;99.90;;;;;;9765643;30;20249;-82
2021/08/04 08:12:49;;;;;;;3.23;3.00;;;21.70;99.90;;;;;;9766069;30;20690;-81
2021/08/04 08:18:11;;;;;;;2.67;2.57;;;22.00;99.90;;;;;;9766753;30;20221;-82
2021/08/04 08:23:33;;;;;;;2.83;2.63;;;22.10;99.90;;;;;;9766656;30;20245;-82
2021/08/04 08:28:57;;;;;;;3.10;2.90;;;22.20;99.90;;;;;;9778671;30;20209;-80
2021/08/04 08:34:19;;;;;;;3.43;3.13;;;22.20;99.90;;;;;;9752566;30;20237;-82
2021/08/04 08:39:41;;;;;;;2.90;2.70;;;22.00;99.90;;;;;;9767579;30;20238;-81
2021/08/04 08:45:05;;;;;;;2.90;2.70;;;21.70;99.90;;;;;;9766452;30;20264;-81
2021/08/04 08:50:27;;;;;;;3.53;3.33;;;21.50;99.90;;;;;;9775455;30;20232;-80
2021/08/04 08:55:50;;;;;;;3.50;3.20;;;21.30;99.90;;;;;;9762116;30;20240;-81
2021/08/04 09:01:13;;;;;;;3.13;2.93;;;21.40;99.90;;;;;;9762204;30;20221;-81
2021/08/04 09:06:48;;;;;;;3.23;3.03;;;21.60;99.90;;;;;;9716853;30;20245;-80
2021/08/04 09:12:14;;;;;;;2.77;2.60;;;21.70;99.90;;;;;;9726797;30;20206;-80
2021/08/04 09:17:38;;;;;;;2.83;2.67;;;21.60;99.90;;;;;;9726488;30;20399;-81
2021/08/04 09:23:01;;;;;;;2.90;2.70;;;21.90;99.90;;;;;;9727467;30;20238;-81
2021/08/04 09:28:23;;;;;;;3.17;2.60;;;22.30;99.90;;;;;;9730269;30;20214;-80
2021/08/04 09:33:47;;;;;;;2.63;2.40;;;22.40;99.90;;;;;;9733576;30;20557;-81
2021/08/04 09:39:09;;;;;;;3.50;3.23;;;22.60;99.90;;;;;;9745515;30;20213;-81
2021/08/04 09:44:31;;;;;;;3.30;3.10;;;22.90;99.90;;;;;;9759392;30;20245;-80
2021/08/04 09:49:58;;;;;;;3.30;3.10;;;23.40;99.90;;;;;;9760907;30;20287;-78
2021/08/04 09:55:21;;;;;;;3.00;2.80;;;23.90;99.90;;;;;;9747426;30;20615;-80
2021/08/04 10:00:50;;;;;;;3.60;3.40;;;23.80;99.90;;;;;;9746776;30;20222;-81
2021/08/04 10:06:21;;;;;;;3.13;2.93;;;23.40;99.90;;;;;;9746488;30;20241;-80
2021/08/04 10:11:46;;;;;;;3.30;3.00;;;23.10;99.90;;;;;;9760990;30;20209;-81
2021/08/04 10:17:08;;;;;;;3.20;3.00;;;23.00;99.90;;;;;;9761590;30;20237;-81
2021/08/04 10:22:32;;;;;;;3.20;3.00;;;22.80;99.90;;;;;;9747593;30;20225;-81
2021/08/04 10:27:54;;;;;;;3.17;2.97;;;22.60;99.90;;;;;;9748500;30;20244;-81
2021/08/04 10:33:17;;;;;;;3.53;3.23;;;22.70;99.90;;;;;;9741222;30;20234;-82
2021/08/04 10:38:45;;;;;;;3.80;3.50;;;22.70;99.90;;;;;;9725663;30;20210;-82
2021/08/04 10:44:21;;;;;;;4.20;3.53;;;22.80;99.90;;;;;;9713065;30;20252;-81
2021/08/04 10:49:43;;;;;;;3.10;2.90;;;22.90;99.90;;;;;;9740731;30;20206;-79
2021/08/04 10:55:10;;;;;;;3.93;3.63;;;23.10;99.90;;;;;;9731577;30;20230;-79
2021/08/04 11:00:33;;;;;;;2.93;2.73;;;23.30;99.90;;;;;;9733450;30;20222;-79
2021/08/04 11:06:05;;;;;;;3.53;3.23;;;23.60;99.90;;;;;;9762189;30;20248;-80
2021/08/04 11:11:57;;;;;;;3.67;3.17;;;23.70;99.90;;;;;;9768497;30;20209;-77
2021/08/04 11:17:21;;;;;;;3.10;2.90;;;23.60;99.90;;;;;;9753862;30;20240;-80
2021/08/04 11:22:50;;;;;;;3.53;3.23;;;23.40;99.90;;;;;;9800085;24;20832;-81
2021/08/04 11:28:21;;;;;;;3.30;3.00;;;23.50;99.90;;;;;;9794292;30;20231;-81
2021/08/04 11:33:43;;;;;;;3.53;3.13;;;23.40;99.90;;;;;;9780238;30;20277;-81
2021/08/04 11:39:08;;;;;;;3.47;3.27;;;23.40;99.90;;;;;;9792842;30;20236;-81
2021/08/04 11:44:34;;;;;;;3.17;2.90;;;23.40;99.90;;;;;;9779806;30;20263;-81
2021/08/04 11:49:57;;;;;;;3.13;2.93;;;23.40;99.90;;;;;;9777067;30;20296;-81
2021/08/04 11:55:24;;;;;;;3.17;2.97;;;23.20;99.90;;;;;;9790013;30;20209;-81
2021/08/04 12:00:47;;;;;;;2.50;2.30;;;23.20;99.90;;;;;;9775594;30;20252;-81
2021/08/04 12:06:14;;;;;;;2.43;2.33;;;23.30;99.90;;;;;;9788490;30;20332;-82
2021/08/04 12:11:41;;;;;;;2.50;2.40;;;23.40;99.90;;;;;;9787059;30;20347;-81
2021/08/04 12:17:06;;;;;;;2.17;2.07;;;23.50;99.90;;;;;;9783490;30;20215;-81
2021/08/04 12:22:30;;;;;;;2.43;2.33;;;23.60;99.90;;;;;;9781308;30;20275;-81
2021/08/04 12:27:54;;;;;;;2.20;2.10;;;23.60;99.90;;;;;;9785757;30;20233;-81
2021/08/04 12:33:19;;;;;;;2.03;1.93;;;23.50;99.90;;;;;;9788775;30;20296;-81
2021/08/04 12:38:46;;;;;;;2.50;2.33;;;23.60;99.90;;;;;;9785991;30;20241;-82
2021/08/04 12:44:16;;;;;;;1.87;1.77;;;23.60;99.90;;;;;;9771802;30;20798;-82
2021/08/04 12:49:40;;;;;;;2.43;2.33;;;23.70;99.90;;;;;;9770889;30;20226;-81
2021/08/04 12:55:11;;;;;;;2.23;2.13;;;23.70;99.90;;;;;;9784766;30;20201;-81
2021/08/04 13:00:35;;;;;;;2.73;2.53;;;23.70;99.90;;;;;;9773985;30;20239;-82
2021/08/04 13:05:59;;;;;;;4.27;2.97;;;23.70;99.90;;;;;;9787990;30;20244;-81
2021/08/04 13:11:27;;;;;;;2.70;2.60;;;23.60;99.90;;;;;;9785931;30;20301;-82
2021/08/04 13:16:49;;;;;;;2.73;2.53;;;23.50;99.90;;;;;;9772543;30;20210;-82
2021/08/04 13:22:12;;;;;;;2.77;2.57;;;23.30;99.90;;;;;;9784313;30;20241;-82
2021/08/04 13:27:36;;;;;;;4.23;1.90;;;23.30;99.90;;;;;;9771836;30;20212;-81
2021/08/04 13:33:01;;;;;;;2.80;2.60;;;23.10;99.90;;;;;;9771393;30;20224;-81
2021/08/04 13:38:25;;;;;;;2.87;2.63;;;23.00;99.90;;;;;;9772895;30;20229;-81
2021/08/04 13:43:47;;;;;;;2.17;1.97;;;22.90;99.90;;;;;;9771379;30;20236;-81
2021/08/04 13:49:09;;;;;;;2.70;2.50;;;22.70;99.90;;;;;;9770989;30;20240;-81
2021/08/04 13:54:32;;;;;;;2.63;2.43;;;22.60;99.90;;;;;;9783626;30;20209;-81
2021/08/04 13:59:54;;;;;;;2.40;2.20;;;22.40;99.90;;;;;;9771134;30;20221;-81
2021/08/04 14:05:17;;;;;;;2.27;2.17;;;22.20;99.90;;;;;;9761495;30;20234;-81
2021/08/04 14:10:41;;;;;;;2.53;2.40;;;22.10;99.90;;;;;;9733445;30;20241;-81
2021/08/04 14:16:04;;;;;;;2.60;2.47;;;22.10;99.90;;;;;;9747524;30;20277;-81
2021/08/04 14:21:26;;;;;;;2.03;1.93;;;22.00;99.90;;;;;;9745537;30;20233;-81
2021/08/04 14:26:49;;;;;;;2.70;2.50;;;22.00;99.90;;;;;;9746719;30;20242;-81
2021/08/04 14:32:12;;;;;;;4.00;3.50;;;21.90;99.90;;;;;;9747942;30;20228;-81
2021/08/04 14:37:34;;;;;;;3.30;3.00;;;21.90;99.90;;;;;;9770505;30;20205;-81
2021/08/04 14:42:57;;;;;;;3.00;2.80;;;21.80;99.90;;;;;;9770217;30;20208;-81
2021/08/04 14:48:19;;;;;;;2.90;2.70;;;21.80;99.90;;;;;;9781915;30;20217;-81
2021/08/04 14:53:41;;;;;;;3.03;2.80;;;21.70;99.90;;;;;;9768499;30;20539;-81
2021/08/04 14:59:04;;;;;;;2.77;2.57;;;21.60;99.90;;;;;;9769072;30;20239;-81
2021/08/04 15:04:27;;;;;;;3.50;3.20;;;21.60;99.90;;;;;;9752203;30;20298;-82
2021/08/04 15:09:49;;;;;;;3.63;2.80;;;21.50;99.90;;;;;;9746284;30;20225;-81
2021/08/04 15:15:13;;;;;;;3.63;3.33;;;21.50;99.90;;;;;;9732411;30;20206;-81
2021/08/04 15:20:34;;;;;;;2.80;2.63;;;21.40;99.90;;;;;;9744855;30;20304;-81
2021/08/04 15:25:56;;;;;;;3.00;2.80;;;21.40;99.90;;;;;;9731375;30;20230;-81
2021/08/04 15:31:20;;;;;;;3.27;3.07;;;21.40;99.90;;;;;;9746945;30;20236;-82
2021/08/04 15:36:42;;;;;;;3.63;3.00;;;21.30;99.90;;;;;;9783393;30;20228;-81
2021/08/04 15:42:05;;;;;;;2.90;2.70;;;21.30;99.90;;;;;;9786202;30;20228;-81
2021/08/04 15:47:28;;;;;;;2.90;2.80;;;21.30;99.90;;;;;;9786946;30;20749;-81
2021/08/04 15:52:50;;;;;;;2.47;2.33;;;21.30;99.90;;;;;;9786162;30;20218;-81
2021/08/04 15:58:12;;;;;;;3.03;2.90;;;21.30;99.90;;;;;;9786480;30;20233;-81
2021/08/04 16:03:37;;;;;;;3.20;2.90;;;21.30;99.90;;;;;;9775064;30;20580;-82
2021/08/04 16:08:59;;;;;;;3.20;2.80;;;21.30;99.90;;;;;;9748166;30;20245;-82
2021/08/04 16:14:21;;;;;;;2.97;2.77;;;21.40;99.90;;;;;;9741737;30;20217;-83
2021/08/04 16:19:46;;;;;;;2.90;2.70;;;21.40;99.90;;;;;;9744400;30;20250;-82
2021/08/04 16:25:10;;;;;;;2.67;2.57;;;21.40;99.90;;;;;;9731981;30;20289;-82
2021/08/04 16:30:32;;;;;;;3.00;2.80;;;21.40;99.90;;;;;;9720180;30;20233;-82
2021/08/04 16:35:55;;;;;;;3.00;2.70;;;21.50;99.90;;;;;;9755623;30;20227;-84
2021/08/04 16:41:17;;;;;;;3.10;2.90;;;21.50;99.90;;;;;;9764972;30;20229;-83
2021/08/04 16:46:39;;;;;;;3.33;3.13;;;21.50;99.90;;;;;;9751580;30;20237;-83
2021/08/04 16:52:02;;;;;;;2.80;2.70;;;21.50;99.90;;;;;;9766767;30;20233;-83
2021/08/04 16:57:26;;;;;;;3.30;3.10;;;21.50;99.90;;;;;;9758446;30;20216;-82
2021/08/04 17:02:48;;;;;;;2.77;2.57;;;21.40;99.90;;;;;;9769623;30;20225;-83
2021/08/04 17:08:12;;;;;;;3.93;3.63;;;21.40;99.90;;;;;;9748660;30;20230;-83
2021/08/04 17:13:34;;;;;;;13.27;10.23;;;21.30;99.90;;;;;;9741013;30;20303;-83
2021/08/04 17:18:56;;;;;;;3.03;2.90;;;21.30;99.90;;;;;;9767502;30;20244;-82
2021/08/04 17:24:25;;;;;;;3.40;3.20;;;21.20;99.90;;;;;;9762520;30;20738;-83
2021/08/04 17:29:48;;;;;;;2.80;2.70;;;21.10;99.90;;;;;;9765874;30;20241;-82
2021/08/04 17:35:11;;;;;;;3.27;3.07;;;21.00;99.90;;;;;;9729500;30;20214;-81
2021/08/04 17:40:34;;;;;;;3.20;3.00;;;21.00;99.90;;;;;;9763714;30;20622;-81
2021/08/04 17:45:57;;;;;;;3.13;2.60;;;21.00;99.90;;;;;;9761545;30;20237;-81
2021/08/04 17:51:20;;;;;;;2.93;2.83;;;20.90;99.90;;;;;;9750943;30;20572;-80
2021/08/04 17:56:44;;;;;;;3.30;3.00;;;20.90;99.90;;;;;;9750339;30;20209;-81
2021/08/04 18:02:06;;;;;;;2.70;2.60;;;20.80;99.90;;;;;;9764811;30;20308;-82
2021/08/04 18:07:28;;;;;;;3.10;2.90;;;20.80;99.90;;;;;;9726908;30;20248;-82
2021/08/04 18:12:51;;;;;;;3.23;2.93;;;20.80;99.90;;;;;;9713873;30;20214;-81
2021/08/04 18:18:13;;;;;;;3.57;3.27;;;20.70;99.90;;;;;;9726622;30;20248;-80
2021/08/04 18:23:35;;;;;;;3.10;2.90;;;20.70;99.90;;;;;;9712915;30;20911;-82
2021/08/04 18:28:59;;;;;;;4.43;4.13;;;20.70;99.90;;;;;;9735137;30;20232;-81
2021/08/04 18:34:21;;;;;;;4.30;3.90;;;20.60;99.90;;;;;;9754434;30;20566;-81
2021/08/04 18:39:43;;;;;;;10.13;9.23;;;20.60;99.90;;;;;;9740434;30;20616;-81
2021/08/04 18:45:08;;;;;;;6.43;5.90;;;20.60;99.90;;;;;;9737443;30;20272;-81
2021/08/04 18:50:30;;;;;;;3.97;3.67;;;20.50;99.90;;;;;;9705345;30;20241;-82
2021/08/04 18:55:52;;;;;;;3.43;3.20;;;20.40;99.90;;;;;;9717514;30;20217;-81
2021/08/04 19:01:15;;;;;;;3.07;2.77;;;20.30;99.90;;;;;;9706100;30;20560;-82
2021/08/04 19:06:37;;;;;;;3.60;2.80;;;20.30;99.90;;;;;;9750216;30;20241;-82
2021/08/04 19:11:59;;;;;;;2.63;2.43;;;20.20;99.90;;;;;;9762375;30;20228;-82
2021/08/04 19:17:22;;;;;;;2.67;2.50;;;20.20;99.90;;;;;;9751757;30;20587;-81
2021/08/04 19:22:44;;;;;;;2.90;2.70;;;20.10;99.90;;;;;;9751176;30;20217;-81
2021/08/04 19:28:07;;;;;;;3.10;2.90;;;20.10;99.90;;;;;;9751932;30;20785;-82
2021/08/04 19:33:30;;;;;;;2.90;2.70;;;20.00;99.90;;;;;;9765482;30;20228;-82
2021/08/04 19:38:52;;;;;;;2.27;2.17;;;20.00;99.90;;;;;;9751452;30;20240;-82
2021/08/04 19:44:14;;;;;;;2.97;2.87;;;19.90;99.90;;;;;;9748428;30;20614;-82
2021/08/04 19:49:37;;;;;;;3.00;2.80;;;19.90;99.90;;;;;;9750443;30;20244;-82
2021/08/04 19:54:59;;;;;;;3.20;3.00;;;19.80;99.90;;;;;;9764690;30;20220;-82
2021/08/04 20:00:22;;;;;;;2.67;2.57;;;19.80;99.90;;;;;;9751869;30;20714;-82
2021/08/04 20:05:45;;;;;;;2.90;2.70;;;19.70;99.90;;;;;;9752467;30;20352;-82
2021/08/04 20:11:07;;;;;;;2.50;2.30;;;19.60;99.90;;;;;;9755136;30;20247;-83
2021/08/04 20:16:30;;;;;;;2.93;2.73;;;19.60;99.90;;;;;;9754635;30;20209;-82
2021/08/04 20:21:53;;;;;;;2.63;2.53;;;19.50;99.90;;;;;;9775676;30;20242;-82
2021/08/04 20:27:17;;;;;;;10.50;9.20;;;19.50;99.90;;;;;;9764928;30;20302;-82
2021/08/04 20:32:39;;;;;;;5.50;5.00;;;19.50;99.90;;;;;;9748474;30;20244;-82
2021/08/04 20:38:02;;;;;;;4.73;4.30;;;19.50;99.90;;;;;;9761916;30;20869;-82
2021/08/04 20:43:24;;;;;;;3.63;3.43;;;19.50;99.90;;;;;;9761037;30;20213;-82
2021/08/04 20:48:46;;;;;;;3.40;2.90;;;19.50;99.90;;;;;;9758712;30;20475;-82
2021/08/04 20:54:09;;;;;;;3.47;3.17;;;19.40;99.90;;;;;;9760846;30;20213;-82
2021/08/04 20:59:37;;;;;;;5.73;3.00;;;19.40;99.90;;;;;;9757813;30;20240;-82
2021/08/04 21:05:02;;;;;;;3.60;2.90;;;19.30;99.90;;;;;;9744262;30;20244;-82
2021/08/04 21:10:26;;;;;;;3.03;2.80;;;19.30;99.90;;;;;;9744835;30;20245;-82
2021/08/04 21:15:48;;;;;;;3.23;3.03;;;19.30;99.90;;;;;;9744549;30;20209;-82
2021/08/04 21:21:10;;;;;;;3.23;3.03;;;19.40;99.90;;;;;;9757971;30;20252;-82
2021/08/04 21:26:33;;;;;;;2.83;2.63;;;19.40;99.90;;;;;;9745606;30;20237;-82
2021/08/04 21:31:55;;;;;;;3.00;2.80;;;19.40;99.90;;;;;;9744254;30;20233;-82
2021/08/04 21:37:18;;;;;;;4.07;3.30;;;19.30;99.90;;;;;;9751316;30;20326;-82
2021/08/04 21:42:41;;;;;;;3.03;2.83;;;19.30;99.90;;;;;;9759347;30;20245;-82
2021/08/04 21:48:03;;;;;;;2.83;2.63;;;19.30;99.90;;;;;;9744909;30;20244;-82
2021/08/04 21:53:25;;;;;;;2.90;2.70;;;19.30;99.90;;;;;;9759456;30;20316;-82
2021/08/04 21:58:48;;;;;;;4.73;2.80;;;19.30;99.90;;;;;;9746037;30;20247;-82
2021/08/04 22:04:10;;;;;;;3.10;2.80;;;19.30;99.90;;;;;;9731765;30;20222;-82
2021/08/04 22:09:32;;;;;;;2.93;2.63;;;19.30;99.90;;;;;;9723088;30;20241;-82
2021/08/04 22:14:55;;;;;;;2.70;2.50;;;19.30;99.90;;;;;;9724097;30;20276;-82
2021/08/04 22:20:18;;;;;;;3.50;3.30;;;19.30;99.90;;;;;;9729493;30;20741;-82
2021/08/04 22:25:41;;;;;;;2.53;2.40;;;19.20;99.90;;;;;;9760784;30;20813;-82
2021/08/04 22:31:04;;;;;;;3.07;2.87;;;19.30;99.90;;;;;;9761299;30;20240;-82
2021/08/04 22:36:26;;;;;;;2.70;2.50;;;19.30;99.90;;;;;;9717907;30;20240;-82
2021/08/04 22:41:48;;;;;;;2.60;2.40;;;19.30;99.90;;;;;;9713433;30;20631;-82
2021/08/04 22:47:11;;;;;;;3.27;3.00;;;19.20;99.90;;;;;;9726698;30;20248;-82
2021/08/04 22:52:33;;;;;;;3.47;3.27;;;19.20;99.90;;;;;;9714192;30;20730;-82
2021/08/04 22:57:55;;;;;;;3.30;3.00;;;19.20;99.90;;;;;;9714502;30;20210;-82
2021/08/04 23:03:18;;;;;;;2.60;2.50;;;19.20;99.90;;;;;;9729200;30;20235;-82
2021/08/04 23:08:40;;;;;;;3.03;2.80;;;19.20;99.90;;;;;;9728467;30;20248;-82
2021/08/04 23:14:02;;;;;;;2.53;2.33;;;19.10;99.90;;;;;;9735828;30;20206;-82
2021/08/04 23:19:25;;;;;;;3.70;3.40;;;19.10;99.90;;;;;;9723942;30;20245;-82
2021/08/04 23:24:47;;;;;;;3.00;2.80;;;19.10;99.90;;;;;;9740331;30;20233;-82
2021/08/04 23:30:11;;;;;;;3.40;3.20;;;19.00;99.90;;;;;;9762577;30;20879;-82
2021/08/04 23:35:34;;;;;;;2.83;2.67;;;18.90;99.90;;;;;;9763731;30;20213;-82
2021/08/04 23:40:56;;;;;;;2.90;2.80;;;18.90;99.90;;;;;;9764884;30;20225;-82
2021/08/04 23:46:18;;;;;;;3.10;2.63;;;18.90;99.90;;;;;;9751777;30;20265;-82
2021/08/04 23:51:41;;;;;;;2.67;2.57;;;18.90;99.90;;;;;;9750278;30;20233;-82
2021/08/04 23:57:03;;;;;;;2.80;2.60;;;18.90;99.90;;;;;;9763822;30;20217;-82
